METAR AND TAF INFORMATION
METAR FOR KTRK
KTRK 130955Z AUTO 34003KT 10SM CLR 01/M01 A2983 RMK AO2
KTRK 130935Z AUTO 36004KT 10SM CLR 02/00 A2982 RMK AO2
KTRK 130915Z AUTO 01006KT 10SM CLR 01/M01 A2983 RMK AO2
KTRK 130855Z AUTO 06004KT 10SM CLR 02/M01 A2984 RMK AO2
KTRK 130835Z AUTO 00000KT 10SM CLR 03/M01 A2984 RMK AO2
KTRK 130815Z AUTO 00000KT 10SM SCT065 03/00 A2985 RMK AO2
KTRK 130755Z AUTO 00000KT 10SM BKN065 04/00 A2985 RMK AO2
KTRK 130735Z AUTO 00000KT 10SM BKN065 04/00 A2985 RMK AO2
KTRK 130715Z AUTO 00000KT 10SM SCT065 05/M01 A2985 RMK AO2
KTRK 130655Z AUTO 00000KT 10SM SCT065 05/M01 A2985 RMK AO2
KTRK 130635Z AUTO 00000KT 10SM SCT065 06/M01 A2984 RMK AO2
KTRK 130635Z 1307/1406 20011KT P6SM SCT080 WS020/20040KT
FM131800 19015G25KT P6SM VCSH BKN035
FM132100 18013G22KT 3SM -RA BKN020
FM140000 22009KT 1SM -SN BKN015

 AIRPORT MAP

 RUNWAY INFORMATION
Runway 02 Runway length 4650 ft Runway width 75 ft
Runway elevation 5886 ft Runway displaced threshold 0 ft Runway heading 30
Runway 20 Runway length 4650 ft Runway width 75 ft
Runway elevation 5891 ft Runway displaced threshold 115 ft Runway heading 210
Runway 11 Runway length 7000 ft Runway width 100 ft
Runway elevation 5897 ft Runway displaced threshold 0 ft Runway heading 120
Runway 29 Runway length 7000 ft Runway width 100 ft
Runway elevation 5889 ft Runway displaced threshold 0 ft Runway heading 300

 AIRPORT FREQUENCIES
Type AWOS Name AWOS 3 Frequency 118 MHZ
Type CNTR Name OAKLAND CN Frequency 127.95 MHZ
Type UNIC Name CTAF/UNICO Frequency 122.8 MHZ

 AIRPORT NEAR NAVIGATION AIDS

-